Time;durP1;ratioP1;P1;durP2;ratioP2;P2;SDS_P1;SDS_P2;PMS_P1;PMS_P2;Temp;Humidity;BMP_temperature;BMP_pressure;BME280_temperature;BME280_humidity;BME280_pressure;Samples;Min_cycle;Max_cycle;Signal;HPM_P1;HPM_P2
2022/04/09 00:01:20;;;;;;;0.60;0.60;;;10.10;71.10;;;9.39;57.89;92646.88;5058550;28;20208;-86
2022/04/09 00:03:47;;;;;;;0.70;0.70;;;10.10;71.10;;;9.42;57.98;92649.78;5017605;28;20216;-87
2022/04/09 00:06:14;;;;;;;0.60;0.60;;;10.10;71.10;;;9.44;58.29;92660.78;5027563;28;20341;-86
2022/04/09 00:08:41;;;;;;;0.60;0.60;;;10.10;71.40;;;9.46;58.18;92652.72;5034698;28;20192;-85
2022/04/09 00:11:09;;;;;;;0.55;0.55;;;10.10;71.00;;;9.45;58.03;92638.06;5046191;28;20192;-85
2022/04/09 00:13:37;;;;;;;0.60;0.60;;;10.20;71.30;;;9.50;58.26;92635.50;5045356;28;20195;-85
2022/04/09 00:16:04;;;;;;;0.70;0.70;;;10.20;71.20;;;9.53;57.96;92634.22;5043513;28;20215;-85
2022/04/09 00:18:31;;;;;;;0.50;0.50;;;10.20;71.20;;;9.53;58.01;92628.97;5050915;28;20195;-85
2022/04/09 00:20:58;;;;;;;0.60;0.60;;;10.20;71.10;;;9.53;57.78;92628.97;5051230;28;20227;-85
2022/04/09 00:23:25;;;;;;;0.60;0.60;;;10.20;71.00;;;9.54;57.86;92636.59;5035842;28;20540;-85
2022/04/09 00:25:52;;;;;;;0.70;0.70;;;10.20;71.00;;;9.52;58.18;92633.44;5049058;28;20204;-85
2022/04/09 00:28:20;;;;;;;0.50;0.50;;;10.20;71.00;;;9.46;57.79;92621.31;5051270;28;20226;-85
2022/04/09 00:30:47;;;;;;;0.50;0.50;;;10.20;71.00;;;9.49;57.83;92618.22;5050476;28;20212;-85
2022/04/09 00:33:14;;;;;;;0.52;0.52;;;10.20;70.90;;;9.47;57.88;92615.03;5066586;28;20201;-84
2022/04/09 00:35:42;;;;;;;0.77;0.77;;;10.20;70.90;;;9.39;57.73;92613.63;5017949;28;20275;-86
2022/04/09 00:38:09;;;;;;;0.50;0.50;;;10.20;70.70;;;9.49;57.82;92628.69;5059180;28;20207;-86
2022/04/09 00:40:38;;;;;;;0.60;0.60;;;10.20;70.90;;;9.47;57.68;92612.41;5050137;28;20235;-86
2022/04/09 00:43:05;;;;;;;0.70;0.70;;;10.20;70.90;;;9.42;57.42;92607.94;5044848;28;20192;-86
2022/04/09 00:45:33;;;;;;;0.60;0.60;;;10.20;70.90;;;9.47;57.62;92609.03;5052789;28;20244;-85
2022/04/09 00:48:00;;;;;;;0.70;0.70;;;10.20;70.90;;;9.42;57.76;92607.94;5041080;28;20218;-85
2022/04/09 00:50:27;;;;;;;0.70;0.70;;;10.20;70.90;;;9.38;57.82;92595.56;5051430;28;20565;-85
2022/04/09 00:53:01;;;;;;;0.50;0.50;;;10.20;70.80;;;9.40;57.58;92609.22;5037662;28;20227;-85
2022/04/09 00:58:16;;;;;;;0.50;0.50;;;10.20;70.70;;;9.35;57.65;92609.13;5052415;28;20224;-85
2022/04/09 01:00:44;;;;;;;0.70;0.70;;;10.20;70.70;;;9.33;57.76;92622.44;5019826;28;20240;-86
2022/04/09 01:03:18;;;;;;;0.50;0.50;;;10.10;70.70;;;9.35;57.79;92609.94;5039400;28;20283;-86
2022/04/09 01:05:48;;;;;;;0.50;0.50;;;10.10;70.90;;;9.35;57.74;92617.78;5034781;28;20398;-86
2022/04/09 01:08:17;;;;;;;0.50;0.50;;;10.10;70.90;;;9.41;57.72;92616.00;5041436;28;20233;-86
2022/04/09 01:10:52;;;;;;;0.70;0.70;;;10.10;71.00;;;9.42;57.85;92599.28;5060344;28;20231;-86
2022/04/09 01:13:23;;;;;;;0.50;0.50;;;10.10;71.00;;;9.33;57.75;92595.50;5040460;28;20208;-85
2022/04/09 01:15:50;;;;;;;0.60;0.60;;;10.10;71.00;;;9.44;57.61;92600.59;5037810;28;20207;-87
2022/04/09 01:18:19;;;;;;;0.50;0.50;;;10.10;70.90;;;9.46;57.49;92613.47;5045140;28;20690;-86
2022/04/09 01:21:04;;;;;;;0.57;0.57;;;10.10;70.90;;;9.43;57.55;92609.50;5048387;28;20333;-86
2022/04/09 01:23:31;;;;;;;0.50;0.50;;;10.10;71.10;;;9.39;57.54;92602.38;5067968;28;20666;-86
2022/04/09 01:26:05;;;;;;;0.50;0.50;;;10.10;70.70;;;9.34;57.41;92624.03;5037287;28;20254;-85
2022/04/09 01:28:35;;;;;;;0.70;0.70;;;10.10;70.70;;;9.27;57.45;92603.25;5045570;28;20234;-85
2022/04/09 01:31:03;;;;;;;0.50;0.50;;;10.10;70.60;;;9.23;57.37;92612.63;5037153;28;20188;-85
2022/04/09 01:33:30;;;;;;;0.50;0.50;;;10.10;70.60;;;9.19;57.91;92592.41;5037533;28;20654;-85
2022/04/09 01:35:57;;;;;;;0.60;0.60;;;10.00;70.60;;;9.15;58.02;92599.97;5053241;28;20188;-85
2022/04/09 01:38:24;;;;;;;0.70;0.70;;;10.00;70.70;;;9.17;57.93;92607.56;5062026;28;20206;-87
2022/04/09 01:40:54;;;;;;;0.50;0.50;;;10.00;70.90;;;9.21;58.21;92599.00;5051444;28;20254;-85
2022/04/09 01:43:23;;;;;;;0.70;0.70;;;10.00;71.10;;;9.18;58.34;92602.09;5050690;28;20196;-86
2022/04/09 01:45:52;;;;;;;0.77;0.77;;;10.00;71.30;;;9.34;58.21;92604.91;5028804;28;20235;-85
2022/04/09 01:48:21;;;;;;;0.60;0.60;;;10.00;71.40;;;9.29;58.17;92603.81;5053521;28;20215;-85
2022/04/09 01:50:49;;;;;;;0.50;0.50;;;10.00;71.40;;;9.47;58.16;92615.03;5053540;28;20211;-85
2022/04/09 01:53:17;;;;;;;0.60;0.60;;;10.00;71.50;;;9.55;57.98;92606.78;5034181;28;20203;-85
2022/04/09 01:55:45;;;;;;;0.70;0.70;;;10.10;71.60;;;9.67;58.12;92624.22;5052393;28;20234;-86
2022/04/09 01:58:12;;;;;;;0.70;0.70;;;10.10;71.60;;;9.74;58.20;92619.56;5064257;28;20224;-86
2022/04/09 02:00:42;;;;;;;0.70;0.70;;;10.20;71.70;;;9.87;57.99;92613.97;5040930;28;20215;-86
2022/04/09 02:03:09;;;;;;;0.70;0.70;;;10.30;71.90;;;9.87;58.04;92598.25;5051645;28;20200;-85
2022/04/09 02:05:37;;;;;;;0.50;0.50;;;10.40;71.90;;;10.06;58.25;92611.03;5048036;28;20303;-85
2022/04/09 02:08:04;;;;;;;0.80;0.80;;;10.50;71.90;;;10.17;57.85;92625.06;5048002;28;20221;-85
2022/04/09 02:10:33;;;;;;;0.70;0.70;;;10.50;71.90;;;10.26;57.64;92605.22;5065979;28;20699;-85
2022/04/09 02:13:04;;;;;;;0.70;0.70;;;10.60;71.90;;;10.32;57.82;92601.59;5055484;28;20199;-86
2022/04/09 02:15:31;;;;;;;0.60;0.60;;;10.70;72.70;;;10.28;57.43;92590.06;5067747;28;20715;-86
2022/04/09 02:17:59;;;;;;;0.50;0.50;;;10.80;71.80;;;10.34;57.59;92588.25;5047972;28;20654;-86
2022/04/09 02:20:27;;;;;;;0.70;0.70;;;10.80;71.70;;;10.55;57.58;92613.66;5068009;28;20234;-86
2022/04/09 02:22:55;;;;;;;0.70;0.70;;;10.90;71.70;;;10.62;57.42;92608.22;5052537;28;20603;-86
2022/04/09 02:25:22;;;;;;;0.60;0.60;;;11.00;71.70;;;10.70;57.30;92612.97;5049459;28;20228;-86
2022/04/09 02:27:49;;;;;;;0.60;0.60;;;11.00;71.60;;;10.71;57.11;92608.56;5036722;28;20638;-86
2022/04/09 02:30:20;;;;;;;0.50;0.50;;;11.10;71.50;;;10.86;57.41;92621.81;5057459;28;20742;-85
2022/04/09 02:32:54;;;;;;;0.60;0.60;;;11.10;71.50;;;10.91;57.07;92615.78;5058044;28;20197;-86
2022/04/09 02:35:26;;;;;;;0.52;0.52;;;11.20;71.50;;;10.99;57.13;92635.53;5059634;28;20230;-86
2022/04/09 02:37:54;;;;;;;0.50;0.50;;;11.30;71.40;;;10.99;57.02;92604.06;5033724;28;20223;-86
2022/04/09 02:40:24;;;;;;;0.60;0.60;;;11.40;71.30;;;11.15;57.12;92631.97;5033991;28;20219;-85
2022/04/09 02:42:52;;;;;;;0.57;0.57;;;11.40;71.30;;;11.09;56.84;92604.13;5052948;28;20209;-86
2022/04/09 02:45:20;;;;;;;0.50;0.50;;;11.50;71.10;;;11.33;56.61;92615.03;5019250;28;20216;-85
2022/04/09 02:47:47;;;;;;;0.70;0.70;;;11.60;71.10;;;11.42;56.66;92606.69;5036193;28;20365;-86
2022/04/09 02:50:19;;;;;;;0.70;0.70;;;11.70;71.10;;;11.54;56.64;92607.28;5036229;28;20208;-85
2022/04/09 02:52:48;;;;;;;0.60;0.60;;;11.80;71.10;;;11.61;56.37;92591.28;5032408;28;20200;-85
2022/04/09 02:55:17;;;;;;;0.60;0.60;;;11.90;70.90;;;11.57;56.19;92588.41;5048511;28;20219;-85
2022/04/09 02:57:45;;;;;;;0.60;0.60;;;11.90;70.80;;;11.62;56.00;92570.03;5056884;28;20203;-86
2022/04/09 03:00:17;;;;;;;0.50;0.50;;;12.00;70.80;;;11.85;55.90;92575.91;5032706;28;20239;-86
2022/04/09 03:02:44;;;;;;;0.60;0.60;;;12.10;70.70;;;11.94;55.61;92610.38;5038985;28;20206;-86
2022/04/09 03:05:38;;;;;;;0.70;0.70;;;12.20;70.70;;;12.00;55.45;92565.47;5036827;28;20227;-86
2022/04/09 03:08:06;;;;;;;0.60;0.60;;;12.30;70.50;;;12.11;55.28;92616.22;5068020;28;20207;-86
2022/04/09 03:10:34;;;;;;;0.60;0.60;;;12.30;70.30;;;12.13;55.27;92610.72;5036150;28;20218;-87
2022/04/09 03:13:04;;;;;;;0.70;0.70;;;12.50;70.30;;;12.24;54.86;92624.66;5035645;28;20226;-87
2022/04/09 03:15:32;;;;;;;0.60;0.60;;;12.50;70.20;;;12.35;56.19;92647.31;5032693;28;20231;-86
2022/04/09 03:18:00;;;;;;;0.60;0.60;;;12.60;70.70;;;12.19;57.30;92662.22;5028241;28;20196;-86
2022/04/09 03:20:29;;;;;;;0.60;0.60;;;12.70;71.70;;;11.81;59.76;92648.38;5051987;28;20219;-86
2022/04/09 03:22:56;;;;;;;0.70;0.70;;;12.70;72.40;;;11.69;59.66;92690.59;5051728;28;20180;-85
2022/04/09 03:25:42;;;;;;;0.50;0.50;;;12.60;72.60;;;11.43;62.12;92729.00;5056585;28;20221;-84
2022/04/09 03:28:11;;;;;;;0.60;0.60;;;12.50;73.40;;;11.14;62.88;92727.44;5051694;28;20226;-83
2022/04/09 03:30:39;;;;;;;0.50;0.50;;;12.30;73.90;;;10.93;62.41;92760.56;5066917;28;20218;-83
2022/04/09 03:33:08;;;;;;;0.50;0.50;;;12.10;73.90;;;10.71;62.70;92777.13;5052947;28;20199;-84
2022/04/09 03:35:36;;;;;;;0.50;0.50;;;11.90;74.10;;;10.51;62.35;92790.00;5050935;28;20369;-83
2022/04/09 03:38:11;;;;;;;0.63;0.63;;;11.70;74.00;;;10.32;62.62;92800.75;5032677;28;20200;-83
2022/04/09 03:40:50;;;;;;;0.50;0.50;;;11.50;74.00;;;10.06;63.02;92810.88;5027151;28;20230;-84
2022/04/09 03:43:23;;;;;;;0.50;0.50;;;11.30;73.90;;;9.85;63.13;92820.28;5060275;28;20200;-83
2022/04/09 03:45:50;;;;;;;0.60;0.60;;;11.10;74.00;;;9.65;63.97;92833.81;5017149;28;20266;-84
2022/04/09 03:48:17;;;;;;;0.60;0.60;;;10.90;74.00;;;9.49;63.31;92856.31;5050229;28;20207;-84
2022/04/09 03:50:45;;;;;;;0.60;0.60;;;10.70;74.30;;;9.34;63.32;92854.25;5062811;28;20219;-83
2022/04/09 03:53:19;;;;;;;0.50;0.50;;;10.50;74.40;;;9.22;63.70;92858.75;5056688;28;20208;-84
2022/04/09 03:55:50;;;;;;;0.50;0.50;;;10.40;74.80;;;9.04;63.43;92849.25;5048960;28;20215;-83
2022/04/09 03:58:19;;;;;;;0.52;0.52;;;10.20;74.70;;;8.88;63.68;92856.03;5046899;28;20203;-85
2022/04/09 04:00:49;;;;;;;0.60;0.60;;;10.00;74.60;;;8.65;64.03;92855.03;5032959;28;20224;-85
2022/04/09 04:03:19;;;;;;;0.50;0.50;;;9.90;75.70;;;8.62;63.95;92881.66;5033178;28;20708;-85
2022/04/09 04:05:48;;;;;;;0.70;0.70;;;9.70;75.60;;;8.43;64.23;92886.16;5054877;28;20217;-85
2022/04/09 04:08:17;;;;;;;0.52;0.52;;;9.60;75.50;;;8.27;64.28;92898.88;5054792;28;20204;-84
2022/04/09 04:10:46;;;;;;;0.77;0.77;;;9.50;75.80;;;8.06;64.80;92897.63;5030093;28;20215;-85
2022/04/09 04:13:23;;;;;;;0.60;0.60;;;9.30;75.70;;;7.89;64.98;92870.63;5033874;28;20207;-85
2022/04/09 04:15:51;;;;;;;0.70;0.70;;;9.10;75.80;;;7.74;65.03;92907.56;5038244;28;20636;-84
2022/04/09 04:18:19;;;;;;;0.60;0.60;;;8.90;76.00;;;7.55;65.11;92933.72;5054371;28;20204;-84
2022/04/09 04:20:50;;;;;;;0.70;0.70;;;8.80;75.90;;;7.35;65.04;92944.44;5035215;28;20235;-85
2022/04/09 04:23:17;;;;;;;0.60;0.60;;;8.60;75.90;;;7.15;65.33;92961.13;5018872;28;20235;-85
2022/04/09 04:25:45;;;;;;;0.70;0.70;;;8.40;76.00;;;7.00;65.23;92977.13;5052357;28;20231;-85
2022/04/09 04:28:13;;;;;;;0.68;0.68;;;8.30;76.20;;;6.87;65.27;92987.69;5023074;28;20224;-85
2022/04/09 04:30:41;;;;;;;0.60;0.60;;;8.10;76.00;;;6.68;65.33;93016.31;5031740;28;20212;-86
2022/04/09 04:33:09;;;;;;;0.60;0.60;;;7.90;76.00;;;6.52;65.14;93041.09;5072491;28;20271;-87
2022/04/09 04:35:42;;;;;;;0.47;0.47;;;7.80;75.90;;;6.29;65.51;93065.13;5056991;28;20781;-88
2022/04/09 04:38:11;;;;;;;0.60;0.60;;;7.60;76.00;;;6.11;65.21;93081.44;5071900;28;20204;-86
2022/04/09 04:40:41;;;;;;;0.60;0.60;;;7.40;75.90;;;5.92;65.31;93080.53;5053657;28;20671;-85
2022/04/09 04:43:10;;;;;;;0.65;0.65;;;7.20;75.90;;;5.81;65.19;93100.19;5063335;28;20203;-86
2022/04/09 04:45:39;;;;;;;0.70;0.70;;;7.10;76.10;;;5.70;65.48;93113.84;5022428;28;20212;-85
2022/04/09 04:48:11;;;;;;;0.60;0.60;;;6.90;76.20;;;5.59;65.66;93136.88;5071682;28;20211;-85
2022/04/09 04:50:39;;;;;;;0.70;0.70;;;6.80;76.30;;;5.41;65.87;93132.34;5037748;28;20227;-85
2022/04/09 04:53:10;;;;;;;0.80;0.80;;;6.70;76.30;;;5.40;65.68;93151.53;5001816;28;20208;-86
2022/04/09 04:55:45;;;;;;;0.70;0.70;;;6.60;76.30;;;5.31;65.58;93157.16;5055301;28;20277;-86
2022/04/09 04:58:12;;;;;;;0.60;0.60;;;6.50;76.40;;;5.21;65.93;93166.19;5020936;28;20298;-84
2022/04/09 05:00:46;;;;;;;0.70;0.70;;;6.40;76.60;;;5.12;65.95;93188.94;5053969;28;20262;-85
2022/04/09 05:03:17;;;;;;;0.70;0.70;;;6.30;76.60;;;5.05;66.34;93221.94;5037888;28;20199;-84
2022/04/09 05:06:00;;;;;;;0.70;0.70;;;6.20;76.70;;;4.99;65.99;93256.50;5070713;28;20619;-86
2022/04/09 05:08:27;;;;;;;0.70;0.70;;;6.10;76.70;;;4.94;66.53;93258.91;5038785;28;20242;-86
2022/04/09 05:10:55;;;;;;;0.70;0.70;;;6.00;76.70;;;4.87;66.47;93266.72;5037739;28;20219;-86
2022/04/09 05:13:27;;;;;;;0.80;0.80;;;6.00;76.90;;;4.77;66.40;93255.88;5053013;28;20204;-86
2022/04/09 05:15:56;;;;;;;0.60;0.60;;;5.90;77.00;;;4.77;66.69;93274.06;5053213;28;20227;-86
2022/04/09 05:18:24;;;;;;;0.70;0.70;;;5.80;77.10;;;4.70;66.75;93300.03;5036145;28;20200;-86
2022/04/09 05:20:52;;;;;;;0.60;0.60;;;5.80;77.20;;;4.71;66.40;93306.00;5050619;28;20298;-85
2022/04/09 05:23:19;;;;;;;0.80;0.80;;;5.70;77.20;;;4.64;66.72;93301.59;5051906;28;20581;-86
2022/04/09 05:25:48;;;;;;;0.60;0.60;;;5.70;77.30;;;4.63;66.87;93315.56;5034010;28;20542;-87
2022/04/09 05:28:17;;;;;;;0.60;0.60;;;5.70;77.50;;;4.61;66.82;93327.97;5051903;28;20239;-87
2022/04/09 05:30:50;;;;;;;0.70;0.70;;;5.60;77.60;;;4.55;67.28;93328.72;5064667;28;20297;-85
2022/04/09 05:33:19;;;;;;;0.70;0.70;;;5.60;77.80;;;4.47;67.08;93323.72;5043042;28;20230;-85
2022/04/09 05:35:51;;;;;;;0.80;0.80;;;5.50;77.80;;;4.54;67.92;93341.91;5036460;28;20310;-86
2022/04/09 05:38:20;;;;;;;0.70;0.70;;;5.50;77.90;;;4.48;67.64;93346.09;5051342;28;20299;-85
2022/04/09 05:40:49;;;;;;;0.80;0.80;;;5.50;78.10;;;4.47;67.50;93368.63;5036151;28;20311;-85
2022/04/09 05:43:19;;;;;;;0.80;0.80;;;5.40;78.10;;;4.51;67.79;93376.06;5065786;28;20246;-81
2022/04/09 05:45:50;;;;;;;0.70;0.70;;;5.40;78.30;;;4.51;67.79;93400.22;5062811;28;20227;-82
2022/04/09 05:48:24;;;;;;;0.70;0.70;;;5.40;78.30;;;4.50;67.55;93409.00;5035887;28;20323;-82
2022/04/09 05:50:55;;;;;;;0.70;0.70;;;5.40;78.40;;;4.52;67.30;93421.78;5051642;28;20287;-81
2022/04/09 05:53:24;;;;;;;0.70;0.70;;;5.40;78.30;;;4.48;68.05;93437.75;5036293;28;20206;-82
2022/04/09 05:55:54;;;;;;;0.60;0.60;;;5.40;78.30;;;4.51;67.59;93454.75;5051934;28;20212;-85
2022/04/09 05:58:23;;;;;;;0.80;0.80;;;5.40;78.40;;;4.49;67.56;93467.09;5039032;28;20207;-85
2022/04/09 06:00:56;;;;;;;0.70;0.70;;;5.40;78.40;;;4.57;67.53;93471.38;5064424;28;20283;-84
2022/04/09 06:03:28;;;;;;;0.70;0.70;;;5.50;78.40;;;4.46;67.41;93464.91;5050044;28;20204;-85
2022/04/09 06:05:56;;;;;;;0.60;0.60;;;5.40;78.40;;;4.48;67.03;93468.91;5054034;28;20220;-85
2022/04/09 06:08:35;;;;;;;0.70;0.70;;;5.40;78.40;;;4.59;67.20;93501.34;5052208;28;20566;-86
2022/04/09 06:11:12;;;;;;;0.70;0.70;;;5.50;78.30;;;4.58;67.14;93512.72;5039622;28;20326;-85
2022/04/09 06:13:40;;;;;;;0.65;0.65;;;5.50;78.20;;;4.57;66.82;93510.31;5070505;28;20298;-85
2022/04/09 06:16:11;;;;;;;0.70;0.70;;;5.50;78.20;;;4.65;66.73;93528.31;5061829;28;20199;-84
2022/04/09 06:18:44;;;;;;;0.80;0.80;;;5.50;78.10;;;4.68;66.79;93525.34;5020328;28;20196;-85
2022/04/09 06:21:13;;;;;;;0.80;0.80;;;5.50;78.00;;;4.69;66.99;93544.34;5050682;28;20299;-85
2022/04/09 06:23:40;;;;;;;0.70;0.70;;;5.60;78.10;;;4.73;67.02;93545.56;5052004;28;20212;-85
2022/04/09 06:26:08;;;;;;;0.70;0.70;;;5.60;78.00;;;4.76;67.04;93553.78;5040946;28;20200;-85
2022/04/09 06:28:37;;;;;;;0.73;0.73;;;5.60;77.90;;;4.79;66.38;93568.97;5052356;28;20220;-85
2022/04/09 06:31:04;;;;;;;0.77;0.77;;;5.70;77.90;;;4.63;66.42;93567.47;5066496;28;20631;-85
2022/04/09 06:33:35;;;;;;;0.80;0.80;;;5.70;77.90;;;4.67;66.31;93580.09;5048185;28;20253;-86
2022/04/09 06:36:05;;;;;;;0.70;0.70;;;5.70;77.80;;;4.75;66.21;93601.53;5049719;28;20647;-86
2022/04/09 06:38:35;;;;;;;0.70;0.70;;;5.70;77.80;;;4.74;66.64;93615.50;5051211;28;20269;-86
2022/04/09 06:41:10;;;;;;;0.80;0.80;;;5.70;77.80;;;4.76;66.90;93610.94;5058054;28;20295;-83
2022/04/09 06:43:40;;;;;;;0.80;0.80;;;5.70;78.00;;;4.75;66.80;93621.53;5019654;28;20231;-84
2022/04/09 06:46:31;;;;;;;0.80;0.80;;;5.70;77.90;;;4.79;66.66;93628.72;5044640;28;20632;-85
2022/04/09 06:49:06;;;;;;;0.80;0.80;;;5.70;77.80;;;4.84;66.49;93648.16;5036271;28;20223;-86
2022/04/09 06:51:48;;;;;;;0.70;0.70;;;5.70;77.70;;;4.83;66.44;93649.16;5045390;28;20802;-84
2022/04/09 06:54:28;;;;;;;0.80;0.80;;;5.70;77.60;;;4.77;66.41;93646.31;5043294;28;20235;-85
2022/04/09 06:56:55;;;;;;;0.80;0.80;;;5.80;77.60;;;4.84;66.29;93668.94;5030134;28;20209;-84
2022/04/09 06:59:24;;;;;;;0.60;0.60;;;5.70;77.50;;;4.85;66.12;93681.75;5014465;28;20718;-84
2022/04/09 07:01:51;;;;;;;0.60;0.60;;;5.70;77.50;;;4.69;66.09;93680.19;5061122;28;20674;-84
2022/04/09 07:04:19;;;;;;;0.70;0.70;;;5.80;77.50;;;4.83;66.02;93704.50;5063103;28;20581;-86
2022/04/09 07:06:46;;;;;;;0.63;0.63;;;5.80;77.60;;;4.77;65.93;93708.66;5027452;28;20195;-85
2022/04/09 07:09:14;;;;;;;0.80;0.80;;;5.80;77.50;;;4.78;65.93;93725.81;5034827;28;20239;-85
2022/04/09 07:11:41;;;;;;;0.70;0.70;;;5.80;77.50;;;4.88;66.28;93748.94;5049925;28;20231;-85
2022/04/09 07:14:09;;;;;;;0.70;0.70;;;5.80;77.60;;;4.85;66.34;93746.69;5049206;28;20218;-86
2022/04/09 07:16:36;;;;;;;0.70;0.70;;;5.80;77.50;;;4.89;66.11;93747.91;5043186;28;20230;-85
2022/04/09 07:19:06;;;;;;;0.60;0.60;;;5.80;77.50;;;4.91;66.18;93755.53;5046585;28;20216;-83
2022/04/09 07:21:33;;;;;;;0.60;0.60;;;5.80;77.60;;;4.79;66.48;93747.44;5076357;28;20678;-84
2022/04/09 07:24:00;;;;;;;0.80;0.80;;;5.90;77.80;;;4.93;66.06;93766.53;5066144;28;20219;-84
2022/04/09 07:26:27;;;;;;;0.80;0.80;;;5.90;78.50;;;4.94;66.37;93783.75;5039608;28;20584;-83
2022/04/09 07:28:54;;;;;;;0.60;0.60;;;5.90;77.70;;;4.91;66.37;93768.53;5050474;28;20238;-83
2022/04/09 07:31:22;;;;;;;0.70;0.70;;;5.90;77.70;;;4.99;66.43;93786.59;5076354;28;20230;-84
2022/04/09 07:33:49;;;;;;;0.80;0.80;;;5.90;77.60;;;4.94;66.30;93765.56;5066966;28;20215;-84
2022/04/09 07:36:16;;;;;;;0.70;0.70;;;5.90;77.60;;;5.06;66.02;93794.47;5036159;28;20207;-84
2022/04/09 07:38:43;;;;;;;0.80;0.80;;;5.90;77.60;;;5.01;65.91;93787.22;5043957;28;20238;-85
2022/04/09 07:41:10;;;;;;;0.70;0.70;;;5.90;77.50;;;5.09;66.13;93799.28;5034478;28;20211;-84
2022/04/09 07:43:37;;;;;;;0.70;0.70;;;6.00;77.70;;;5.08;66.12;93806.28;5051941;28;20204;-85
2022/04/09 07:46:04;;;;;;;0.80;0.80;;;6.10;77.60;;;5.11;65.91;93811.13;5062173;28;20203;-84
2022/04/09 07:48:31;;;;;;;0.60;0.60;;;6.00;77.60;;;5.15;66.29;93826.31;5049930;28;20225;-84
2022/04/09 07:50:58;;;;;;;0.60;0.60;;;6.00;77.60;;;5.13;65.81;93834.31;5053585;28;20223;-84
2022/04/09 07:53:25;;;;;;;0.70;0.70;;;6.00;77.50;;;5.13;65.90;93834.31;5047746;28;20207;-85
2022/04/09 07:55:52;;;;;;;0.60;0.60;;;6.00;77.50;;;5.07;66.35;93848.06;5051860;28;20294;-84
2022/04/09 07:58:19;;;;;;;0.80;0.80;;;6.00;77.50;;;5.04;66.30;93856.19;5032206;28;20209;-86
2022/04/09 08:00:46;;;;;;;0.70;0.70;;;6.00;77.50;;;5.01;66.02;93852.19;5037696;28;20240;-85
2022/04/09 08:03:14;;;;;;;0.50;0.50;;;6.00;77.60;;;5.06;65.75;93875.81;5050496;28;20302;-85
2022/04/09 08:05:43;;;;;;;0.70;0.70;;;6.00;77.70;;;5.06;66.49;93878.41;5064758;28;20780;-84
2022/04/09 08:08:11;;;;;;;0.70;0.70;;;6.00;77.70;;;5.10;66.21;93886.66;5049516;28;20207;-86
2022/04/09 08:10:39;;;;;;;0.70;0.70;;;6.00;77.90;;;5.07;66.30;93890.44;5049835;28;20219;-85
2022/04/09 08:13:06;;;;;;;0.70;0.70;;;6.00;77.90;;;5.04;66.74;93893.41;5030098;28;20278;-84
2022/04/09 08:15:33;;;;;;;0.80;0.80;;;6.00;77.90;;;5.20;66.38;93920.16;5017529;28;20439;-84
2022/04/09 08:18:05;;;;;;;0.65;0.65;;;6.00;77.90;;;5.23;66.37;93919.81;5052595;28;20210;-85
2022/04/09 08:20:52;;;;;;;0.60;0.60;;;6.10;78.00;;;5.27;66.35;93924.47;5030988;28;20219;-85
2022/04/09 08:23:19;;;;;;;0.70;0.70;;;6.10;78.00;;;5.31;66.32;93916.28;5034026;28;20514;-85
2022/04/09 08:25:48;;;;;;;0.70;0.70;;;6.20;78.10;;;5.34;66.36;93923.72;5038426;28;20228;-85
2022/04/09 08:28:16;;;;;;;0.70;0.70;;;6.20;78.10;;;5.32;66.15;93916.06;5068696;28;20200;-86
2022/04/09 08:30:43;;;;;;;0.80;0.80;;;6.20;78.00;;;5.41;66.35;93922.78;5058976;28;20246;-85
2022/04/09 08:33:13;;;;;;;0.70;0.70;;;6.20;78.00;;;5.45;66.10;93934.41;5071087;28;20195;-86
2022/04/09 08:35:43;;;;;;;0.70;0.70;;;6.20;77.90;;;5.40;66.72;93931.56;5008615;28;20717;-85
2022/04/09 08:38:10;;;;;;;0.80;0.80;;;6.30;78.00;;;5.45;65.94;93942.22;5051856;28;20663;-86
2022/04/09 08:40:38;;;;;;;0.70;0.70;;;6.30;77.90;;;5.43;66.20;93949.44;5081384;28;20224;-85
2022/04/09 08:43:05;;;;;;;0.80;0.80;;;6.30;77.90;;;5.47;66.64;93954.25;5050946;28;20207;-86
2022/04/09 08:45:39;;;;;;;0.70;0.70;;;6.30;78.00;;;5.54;66.31;93955.13;5032606;28;20283;-85
2022/04/09 08:48:09;;;;;;;0.70;0.70;;;6.40;78.20;;;5.61;66.30;93963.81;5081903;28;20227;-86
2022/04/09 08:50:36;;;;;;;0.60;0.60;;;6.40;78.20;;;5.66;66.36;93966.66;5048973;28;20230;-85
2022/04/09 08:53:07;;;;;;;0.63;0.63;;;6.40;78.40;;;5.75;66.52;93962.16;5048465;28;20228;-84
2022/04/09 08:58:25;;;;;;;0.60;0.60;;;6.50;78.30;;;6.00;66.79;93972.22;5091046;28;20571;-85
2022/04/09 09:00:52;;;;;;;0.70;0.70;;;6.60;79.20;;;6.08;66.30;93972.09;5060223;28;20307;-86
2022/04/09 09:03:19;;;;;;;0.60;0.60;;;6.60;79.00;;;6.08;65.89;93972.88;5065538;28;21608;-84
2022/04/09 09:05:52;;;;;;;0.60;0.60;;;6.70;78.70;;;6.09;65.80;93974.50;5052714;28;20732;-85
2022/04/09 09:08:41;;;;;;;0.60;0.60;;;6.80;78.60;;;6.06;65.74;93972.25;5047015;28;20702;-84
2022/04/09 09:11:18;;;;;;;0.52;0.52;;;6.80;78.30;;;5.95;66.18;93956.31;5063673;28;20691;-84
2022/04/09 09:13:58;;;;;;;0.70;0.70;;;6.90;78.80;;;6.23;65.65;93975.41;5046943;28;20319;-84
2022/04/09 09:16:32;;;;;;;0.60;0.60;;;6.90;78.60;;;6.31;66.21;93977.09;5033513;28;20208;-84
2022/04/09 09:19:04;;;;;;;0.60;0.60;;;7.00;78.70;;;6.23;65.99;93953.78;5047703;28;20587;-82
2022/04/09 09:21:31;;;;;;;0.63;0.63;;;7.00;78.60;;;6.43;65.79;93973.97;5052774;28;20277;-82
2022/04/09 09:24:07;;;;;;;0.60;0.60;;;7.00;78.60;;;6.47;65.89;93962.97;5048975;28;20216;-85
2022/04/09 09:26:40;;;;;;;0.60;0.60;;;7.10;78.10;;;6.52;65.78;93971.03;5057756;28;20257;-84
2022/04/09 09:29:09;;;;;;;0.60;0.60;;;7.10;78.20;;;6.55;65.95;93988.06;5018231;28;20690;-83
2022/04/09 09:31:45;;;;;;;0.50;0.50;;;7.20;78.30;;;6.50;65.44;93973.00;5030818;28;20679;-83
2022/04/09 09:34:19;;;;;;;0.60;0.60;;;7.20;77.90;;;6.64;65.44;93971.31;5048998;28;20215;-85
2022/04/09 09:36:48;;;;;;;0.50;0.50;;;7.20;78.10;;;6.70;65.20;93972.31;5049547;28;20231;-84
2022/04/09 09:39:25;;;;;;;0.50;0.50;;;7.40;78.20;;;6.81;65.46;93976.22;5065205;28;20228;-83
2022/04/09 09:41:59;;;;;;;0.60;0.60;;;7.40;78.20;;;6.94;65.45;93968.47;5016532;28;20208;-83
2022/04/09 09:44:32;;;;;;;0.50;0.50;;;7.40;78.50;;;7.12;65.33;94001.84;5015877;28;20244;-83
2022/04/09 09:47:07;;;;;;;0.60;0.60;;;7.60;78.50;;;7.28;65.19;93984.28;5013712;28;20235;-83
2022/04/09 09:49:53;;;;;;;0.50;0.50;;;7.70;78.30;;;7.31;65.12;93966.44;5043174;28;20628;-83
2022/04/09 09:52:36;;;;;;;0.60;0.60;;;7.80;78.40;;;7.47;65.12;93961.88;5015718;28;20295;-84
2022/04/09 09:55:14;;;;;;;0.50;0.50;;;7.90;78.20;;;7.63;64.61;94005.88;5046851;28;20299;-84
2022/04/09 09:57:42;;;;;;;0.60;0.60;;;8.00;77.90;;;7.66;64.07;93984.59;5014106;28;20234;-84
2022/04/09 10:00:14;;;;;;;0.70;0.70;;;8.10;77.90;;;7.70;63.84;93977.19;5046921;28;20706;-83
2022/04/09 10:02:44;;;;;;;0.70;0.70;;;8.10;77.60;;;7.78;63.67;93976.22;5058888;28;20192;-83
2022/04/09 10:05:13;;;;;;;0.70;0.70;;;8.30;77.20;;;7.82;63.63;93980.03;5079484;28;20289;-84
2022/04/09 10:07:40;;;;;;;0.57;0.57;;;8.30;77.30;;;7.64;62.70;93947.47;5029196;28;20205;-84
2022/04/09 10:10:08;;;;;;;0.60;0.60;;;8.30;76.50;;;7.80;61.77;93980.22;5026684;28;20263;-84
2022/04/09 10:12:40;;;;;;;0.57;0.57;;;8.40;76.10;;;7.76;61.41;93983.44;5016967;28;20211;-84
2022/04/09 10:15:09;;;;;;;0.52;0.52;;;8.40;75.20;;;7.72;61.87;93987.44;5048126;28;20228;-83
2022/04/09 10:17:38;;;;;;;0.70;0.70;;;8.40;75.20;;;7.67;61.09;93970.56;5033344;28;20315;-85
2022/04/09 10:20:07;;;;;;;0.70;0.70;;;8.30;74.60;;;7.72;61.30;93964.75;5000312;28;20307;-84
2022/04/09 10:22:48;;;;;;;0.50;0.50;;;8.40;74.80;;;7.82;60.99;93975.63;5015419;28;20196;-81
2022/04/09 10:25:18;;;;;;;0.50;0.50;;;8.40;74.70;;;7.96;61.26;93960.78;5048065;28;20601;-82
2022/04/09 10:27:52;;;;;;;0.70;0.70;;;8.40;75.10;;;8.10;60.85;93961.59;5031831;28;20231;-80
2022/04/09 10:30:21;;;;;;;0.50;0.50;;;8.50;74.80;;;8.30;59.05;93966.84;5049511;28;20294;-80
2022/04/09 10:32:59;;;;;;;0.50;0.50;;;8.50;72.90;;;8.48;59.77;93983.75;5016135;28;20211;-80
2022/04/09 10:35:40;;;;;;;0.50;0.50;;;8.60;74.60;;;8.50;58.83;93973.91;5032360;28;20228;-81
2022/04/09 10:38:14;;;;;;;0.70;0.70;;;8.80;73.60;;;8.59;58.50;93990.16;5016962;28;20224;-81
2022/04/09 10:40:55;;;;;;;0.70;0.70;;;8.90;73.40;;;8.56;57.30;93980.94;5033268;28;20216;-81
2022/04/09 10:43:25;;;;;;;0.50;0.50;;;8.90;71.40;;;8.59;57.84;93983.16;5034139;28;20680;-81
2022/04/09 10:46:00;;;;;;;0.50;0.50;;;9.00;72.60;;;8.61;56.97;93988.16;5035089;28;20221;-81
2022/04/09 10:48:30;;;;;;;0.57;0.57;;;9.00;71.90;;;8.59;55.93;93985.75;5032024;28;20214;-82